sensor_id;sensor_type;location;lat;lon;timestamp;temperature;humidity
23532;DHT22;11943;52.270;20.978;2023-08-06T00:00:25;18.90;99.90
23532;DHT22;11943;52.270;20.978;2023-08-06T00:02:51;18.90;99.90
23532;DHT22;11943;52.270;20.978;2023-08-06T00:05:16;18.90;99.90
23532;DHT22;11943;52.270;20.978;2023-08-06T00:07:44;18.90;99.90
23532;DHT22;11943;52.270;20.978;2023-08-06T00:10:10;18.80;99.90
23532;DHT22;11943;52.270;20.978;2023-08-06T00:12:36;18.80;99.90
23532;DHT22;11943;52.270;20.978;2023-08-06T00:15:02;18.90;99.90
23532;DHT22;11943;52.270;20.978;2023-08-06T00:17:27;18.90;99.90
23532;DHT22;11943;52.270;20.978;2023-08-06T00:19:53;18.90;99.90
23532;DHT22;11943;52.270;20.978;2023-08-06T00:22:19;18.90;99.90
23532;DHT22;11943;52.270;20.978;2023-08-06T00:24:44;18.90;99.90
23532;DHT22;11943;52.270;20.978;2023-08-06T00:27:10;18.90;99.90
23532;DHT22;11943;52.270;20.978;2023-08-06T00:29:36;18.90;99.90
23532;DHT22;11943;52.270;20.978;2023-08-06T00:32:01;18.80;99.90
23532;DHT22;11943;52.270;20.978;2023-08-06T00:34:27;18.80;99.90
23532;DHT22;11943;52.270;20.978;2023-08-06T00:36:53;18.80;99.90
23532;DHT22;11943;52.270;20.978;2023-08-06T00:39:19;18.80;99.90
23532;DHT22;11943;52.270;20.978;2023-08-06T00:41:45;18.70;99.90
23532;DHT22;11943;52.270;20.978;2023-08-06T00:44:11;18.70;99.90
23532;DHT22;11943;52.270;20.978;2023-08-06T00:46:36;18.70;99.90
23532;DHT22;11943;52.270;20.978;2023-08-06T00:49:02;18.60;99.90
23532;DHT22;11943;52.270;20.978;2023-08-06T00:51:28;18.60;99.90
23532;DHT22;11943;52.270;20.978;2023-08-06T00:53:54;18.60;99.90
23532;DHT22;11943;52.270;20.978;2023-08-06T00:56:20;18.60;99.90
23532;DHT22;11943;52.270;20.978;2023-08-06T00:58:46;18.60;99.90
23532;DHT22;11943;52.270;20.978;2023-08-06T01:01:12;18.60;99.90
23532;DHT22;11943;52.270;20.978;2023-08-06T01:03:38;18.50;99.90
23532;DHT22;11943;52.270;20.978;2023-08-06T01:06:04;18.50;99.90
23532;DHT22;11943;52.270;20.978;2023-08-06T01:16:06;18.50;99.90
23532;DHT22;11943;52.270;20.978;2023-08-06T01:18:32;18.50;99.90
23532;DHT22;11943;52.270;20.978;2023-08-06T01:20:58;18.60;99.90
23532;DHT22;11943;52.270;20.978;2023-08-06T01:23:24;18.50;99.90
23532;DHT22;11943;52.270;20.978;2023-08-06T01:31:02;18.50;99.90
23532;DHT22;11943;52.270;20.978;2023-08-06T01:33:31;18.60;99.90
23532;DHT22;11943;52.270;20.978;2023-08-06T01:35:57;18.50;99.90
23532;DHT22;11943;52.270;20.978;2023-08-06T01:38:24;18.50;99.90
23532;DHT22;11943;52.270;20.978;2023-08-06T01:40:50;18.50;99.90
23532;DHT22;11943;52.270;20.978;2023-08-06T01:43:16;18.50;99.90
23532;DHT22;11943;52.270;20.978;2023-08-06T01:45:42;18.50;99.90
23532;DHT22;11943;52.270;20.978;2023-08-06T01:48:07;18.50;99.90
23532;DHT22;11943;52.270;20.978;2023-08-06T01:50:33;18.50;99.90
23532;DHT22;11943;52.270;20.978;2023-08-06T01:52:58;18.60;99.90
23532;DHT22;11943;52.270;20.978;2023-08-06T01:55:24;18.60;99.90
23532;DHT22;11943;52.270;20.978;2023-08-06T01:57:50;18.60;99.90
23532;DHT22;11943;52.270;20.978;2023-08-06T02:00:15;18.60;99.90
23532;DHT22;11943;52.270;20.978;2023-08-06T02:02:41;18.60;99.90
23532;DHT22;11943;52.270;20.978;2023-08-06T02:05:06;18.60;99.90
23532;DHT22;11943;52.270;20.978;2023-08-06T02:07:32;18.60;99.90
23532;DHT22;11943;52.270;20.978;2023-08-06T02:09:58;18.60;99.90
23532;DHT22;11943;52.270;20.978;2023-08-06T02:12:23;18.60;99.90
23532;DHT22;11943;52.270;20.978;2023-08-06T02:14:49;18.60;99.90
23532;DHT22;11943;52.270;20.978;2023-08-06T02:17:15;18.60;99.90
23532;DHT22;11943;52.270;20.978;2023-08-06T02:19:40;18.60;99.90
23532;DHT22;11943;52.270;20.978;2023-08-06T02:22:08;18.60;99.90
23532;DHT22;11943;52.270;20.978;2023-08-06T02:24:34;18.70;99.90
23532;DHT22;11943;52.270;20.978;2023-08-06T02:26:59;18.70;99.90
23532;DHT22;11943;52.270;20.978;2023-08-06T02:29:25;18.70;99.90
23532;DHT22;11943;52.270;20.978;2023-08-06T02:31:51;18.70;99.90
23532;DHT22;11943;52.270;20.978;2023-08-06T02:34:16;18.70;99.90
23532;DHT22;11943;52.270;20.978;2023-08-06T02:36:42;18.70;99.90
23532;DHT22;11943;52.270;20.978;2023-08-06T02:39:08;18.70;99.90
23532;DHT22;11943;52.270;20.978;2023-08-06T02:41:33;18.70;99.90
23532;DHT22;11943;52.270;20.978;2023-08-06T02:43:59;18.70;99.90
23532;DHT22;11943;52.270;20.978;2023-08-06T02:46:24;18.80;99.90
23532;DHT22;11943;52.270;20.978;2023-08-06T02:48:50;18.80;99.90
23532;DHT22;11943;52.270;20.978;2023-08-06T02:51:16;18.80;99.90
23532;DHT22;11943;52.270;20.978;2023-08-06T02:53:41;18.80;99.90
23532;DHT22;11943;52.270;20.978;2023-08-06T02:56:07;18.80;99.90
23532;DHT22;11943;52.270;20.978;2023-08-06T02:58:32;18.90;99.90
23532;DHT22;11943;52.270;20.978;2023-08-06T03:01:05;18.90;99.90
23532;DHT22;11943;52.270;20.978;2023-08-06T03:03:32;18.90;99.90
23532;DHT22;11943;52.270;20.978;2023-08-06T03:05:58;18.90;99.90
23532;DHT22;11943;52.270;20.978;2023-08-06T03:08:24;18.90;99.90
23532;DHT22;11943;52.270;20.978;2023-08-06T03:10:50;18.90;99.90
23532;DHT22;11943;52.270;20.978;2023-08-06T03:13:17;18.90;99.90
23532;DHT22;11943;52.270;20.978;2023-08-06T03:15:43;18.90;99.90
23532;DHT22;11943;52.270;20.978;2023-08-06T03:18:09;18.90;99.90
23532;DHT22;11943;52.270;20.978;2023-08-06T03:20:34;18.90;99.90
23532;DHT22;11943;52.270;20.978;2023-08-06T03:23:00;19.00;99.90
23532;DHT22;11943;52.270;20.978;2023-08-06T03:25:25;19.00;99.90
23532;DHT22;11943;52.270;20.978;2023-08-06T03:27:51;19.00;99.90
23532;DHT22;11943;52.270;20.978;2023-08-06T03:30:17;19.00;99.90
23532;DHT22;11943;52.270;20.978;2023-08-06T03:32:42;19.00;99.90
23532;DHT22;11943;52.270;20.978;2023-08-06T03:35:08;19.00;99.90
23532;DHT22;11943;52.270;20.978;2023-08-06T03:37:34;19.10;99.90
23532;DHT22;11943;52.270;20.978;2023-08-06T03:39:59;19.10;99.90
23532;DHT22;11943;52.270;20.978;2023-08-06T03:42:25;19.10;99.90
23532;DHT22;11943;52.270;20.978;2023-08-06T03:44:50;19.10;99.90
23532;DHT22;11943;52.270;20.978;2023-08-06T03:47:16;19.10;99.90
23532;DHT22;11943;52.270;20.978;2023-08-06T03:49:41;19.10;99.90
23532;DHT22;11943;52.270;20.978;2023-08-06T03:52:08;19.10;99.90
23532;DHT22;11943;52.270;20.978;2023-08-06T03:54:34;19.20;99.90
23532;DHT22;11943;52.270;20.978;2023-08-06T03:57:00;19.20;99.90
23532;DHT22;11943;52.270;20.978;2023-08-06T03:59:25;19.20;99.90
23532;DHT22;11943;52.270;20.978;2023-08-06T04:01:51;19.20;99.90
23532;DHT22;11943;52.270;20.978;2023-08-06T04:04:16;19.20;99.90
23532;DHT22;11943;52.270;20.978;2023-08-06T04:06:42;19.20;99.90
23532;DHT22;11943;52.270;20.978;2023-08-06T04:09:08;19.20;99.90
23532;DHT22;11943;52.270;20.978;2023-08-06T04:11:33;19.20;99.90
23532;DHT22;11943;52.270;20.978;2023-08-06T04:13:59;19.30;99.90
23532;DHT22;11943;52.270;20.978;2023-08-06T04:16:24;19.30;99.90
23532;DHT22;11943;52.270;20.978;2023-08-06T04:18:51;19.30;99.90
23532;DHT22;11943;52.270;20.978;2023-08-06T04:21:18;19.30;99.90
23532;DHT22;11943;52.270;20.978;2023-08-06T04:23:44;19.30;99.90
23532;DHT22;11943;52.270;20.978;2023-08-06T04:26:10;19.40;99.90
23532;DHT22;11943;52.270;20.978;2023-08-06T04:28:35;19.40;99.90
23532;DHT22;11943;52.270;20.978;2023-08-06T04:31:01;19.40;99.90
23532;DHT22;11943;52.270;20.978;2023-08-06T04:33:27;19.40;99.90
23532;DHT22;11943;52.270;20.978;2023-08-06T04:35:55;19.40;99.90
23532;DHT22;11943;52.270;20.978;2023-08-06T04:38:22;19.50;99.90
23532;DHT22;11943;52.270;20.978;2023-08-06T04:40:48;19.50;99.90
23532;DHT22;11943;52.270;20.978;2023-08-06T04:43:14;19.50;99.90
23532;DHT22;11943;52.270;20.978;2023-08-06T04:45:49;19.60;99.90
23532;DHT22;11943;52.270;20.978;2023-08-06T04:48:14;19.70;99.90
23532;DHT22;11943;52.270;20.978;2023-08-06T04:50:47;19.70;99.90
23532;DHT22;11943;52.270;20.978;2023-08-06T04:53:13;19.70;99.90
23532;DHT22;11943;52.270;20.978;2023-08-06T04:55:38;19.70;99.90
23532;DHT22;11943;52.270;20.978;2023-08-06T04:58:04;19.80;99.90
23532;DHT22;11943;52.270;20.978;2023-08-06T05:00:30;19.80;99.90
23532;DHT22;11943;52.270;20.978;2023-08-06T05:02:56;19.80;99.90
23532;DHT22;11943;52.270;20.978;2023-08-06T05:05:22;19.80;99.90
23532;DHT22;11943;52.270;20.978;2023-08-06T05:07:49;19.90;99.90
23532;DHT22;11943;52.270;20.978;2023-08-06T05:10:15;20.00;99.90
23532;DHT22;11943;52.270;20.978;2023-08-06T05:12:41;20.00;99.90
23532;DHT22;11943;52.270;20.978;2023-08-06T05:15:07;20.20;99.90
23532;DHT22;11943;52.270;20.978;2023-08-06T05:17:32;20.30;99.90
23532;DHT22;11943;52.270;20.978;2023-08-06T05:19:59;20.40;99.90
23532;DHT22;11943;52.270;20.978;2023-08-06T05:22:25;20.50;99.90
23532;DHT22;11943;52.270;20.978;2023-08-06T05:24:50;20.60;99.90
23532;DHT22;11943;52.270;20.978;2023-08-06T05:27:16;20.70;99.90
23532;DHT22;11943;52.270;20.978;2023-08-06T05:29:44;20.80;99.90
23532;DHT22;11943;52.270;20.978;2023-08-06T05:32:10;20.90;99.90
23532;DHT22;11943;52.270;20.978;2023-08-06T05:34:35;21.00;99.90
23532;DHT22;11943;52.270;20.978;2023-08-06T05:37:02;21.10;99.90
23532;DHT22;11943;52.270;20.978;2023-08-06T05:39:27;21.20;99.90
23532;DHT22;11943;52.270;20.978;2023-08-06T05:41:53;21.50;99.90
23532;DHT22;11943;52.270;20.978;2023-08-06T05:44:19;21.60;99.90
23532;DHT22;11943;52.270;20.978;2023-08-06T05:46:44;21.70;99.90
23532;DHT22;11943;52.270;20.978;2023-08-06T05:49:10;21.90;99.90
23532;DHT22;11943;52.270;20.978;2023-08-06T05:51:38;22.10;99.90
23532;DHT22;11943;52.270;20.978;2023-08-06T05:54:03;22.50;99.90
23532;DHT22;11943;52.270;20.978;2023-08-06T05:56:29;22.80;99.90
23532;DHT22;11943;52.270;20.978;2023-08-06T05:58:54;23.00;99.90
23532;DHT22;11943;52.270;20.978;2023-08-06T06:01:20;23.20;99.90
23532;DHT22;11943;52.270;20.978;2023-08-06T06:03:46;23.50;99.90
23532;DHT22;11943;52.270;20.978;2023-08-06T06:06:11;24.00;99.90
23532;DHT22;11943;52.270;20.978;2023-08-06T06:08:37;24.20;99.90
23532;DHT22;11943;52.270;20.978;2023-08-06T06:11:02;24.40;99.90
23532;DHT22;11943;52.270;20.978;2023-08-06T06:13:28;24.70;99.90
23532;DHT22;11943;52.270;20.978;2023-08-06T06:15:57;25.10;99.90
23532;DHT22;11943;52.270;20.978;2023-08-06T06:18:22;24.90;99.90
23532;DHT22;11943;52.270;20.978;2023-08-06T06:20:48;25.20;99.90
23532;DHT22;11943;52.270;20.978;2023-08-06T06:23:14;25.00;99.90
23532;DHT22;11943;52.270;20.978;2023-08-06T06:25:58;24.90;99.90
23532;DHT22;11943;52.270;20.978;2023-08-06T06:28:23;24.50;99.90
23532;DHT22;11943;52.270;20.978;2023-08-06T06:30:51;24.10;99.90
23532;DHT22;11943;52.270;20.978;2023-08-06T06:33:16;23.60;99.90
23532;DHT22;11943;52.270;20.978;2023-08-06T06:35:42;23.60;99.90
23532;DHT22;11943;52.270;20.978;2023-08-06T06:38:08;23.70;99.90
23532;DHT22;11943;52.270;20.978;2023-08-06T06:40:33;23.70;99.90
23532;DHT22;11943;52.270;20.978;2023-08-06T06:42:59;23.60;99.90
23532;DHT22;11943;52.270;20.978;2023-08-06T06:45:25;23.80;99.90
23532;DHT22;11943;52.270;20.978;2023-08-06T06:47:50;23.80;99.90
23532;DHT22;11943;52.270;20.978;2023-08-06T06:50:16;23.70;99.90
23532;DHT22;11943;52.270;20.978;2023-08-06T06:52:41;24.00;99.90
23532;DHT22;11943;52.270;20.978;2023-08-06T06:55:07;23.90;99.90
23532;DHT22;11943;52.270;20.978;2023-08-06T06:57:33;23.80;99.90
23532;DHT22;11943;52.270;20.978;2023-08-06T06:59:59;24.00;99.90
23532;DHT22;11943;52.270;20.978;2023-08-06T07:02:24;24.10;99.90
23532;DHT22;11943;52.270;20.978;2023-08-06T07:04:50;24.00;99.90
23532;DHT22;11943;52.270;20.978;2023-08-06T07:07:16;24.10;99.90
23532;DHT22;11943;52.270;20.978;2023-08-06T07:09:41;24.30;99.90
23532;DHT22;11943;52.270;20.978;2023-08-06T07:12:07;24.60;99.90
23532;DHT22;11943;52.270;20.978;2023-08-06T07:14:33;24.60;99.90
23532;DHT22;11943;52.270;20.978;2023-08-06T07:16:59;24.80;99.90
23532;DHT22;11943;52.270;20.978;2023-08-06T07:19:24;24.80;99.90
23532;DHT22;11943;52.270;20.978;2023-08-06T07:21:50;24.80;99.90
23532;DHT22;11943;52.270;20.978;2023-08-06T07:24:16;24.90;99.90
23532;DHT22;11943;52.270;20.978;2023-08-06T07:26:41;24.80;99.90
23532;DHT22;11943;52.270;20.978;2023-08-06T07:29:07;24.50;99.90
23532;DHT22;11943;52.270;20.978;2023-08-06T07:31:33;24.60;99.90
23532;DHT22;11943;52.270;20.978;2023-08-06T07:33:58;24.60;99.90
23532;DHT22;11943;52.270;20.978;2023-08-06T07:36:24;24.90;99.90
23532;DHT22;11943;52.270;20.978;2023-08-06T07:38:50;24.90;99.90
23532;DHT22;11943;52.270;20.978;2023-08-06T07:41:21;25.10;99.90
23532;DHT22;11943;52.270;20.978;2023-08-06T07:43:47;25.40;99.90
23532;DHT22;11943;52.270;20.978;2023-08-06T07:46:13;25.60;99.90
23532;DHT22;11943;52.270;20.978;2023-08-06T07:48:39;25.70;99.90
23532;DHT22;11943;52.270;20.978;2023-08-06T07:51:04;25.60;99.90
23532;DHT22;11943;52.270;20.978;2023-08-06T07:53:30;25.10;99.90
23532;DHT22;11943;52.270;20.978;2023-08-06T07:55:56;25.20;99.90
23532;DHT22;11943;52.270;20.978;2023-08-06T07:58:24;25.40;99.90
23532;DHT22;11943;52.270;20.978;2023-08-06T08:00:49;25.60;99.90
23532;DHT22;11943;52.270;20.978;2023-08-06T08:03:16;25.50;99.90
23532;DHT22;11943;52.270;20.978;2023-08-06T08:05:42;25.90;99.90
23532;DHT22;11943;52.270;20.978;2023-08-06T08:08:08;25.90;99.90
23532;DHT22;11943;52.270;20.978;2023-08-06T08:10:34;26.10;99.90
23532;DHT22;11943;52.270;20.978;2023-08-06T08:13:03;26.20;99.90
23532;DHT22;11943;52.270;20.978;2023-08-06T08:15:30;26.30;99.90
23532;DHT22;11943;52.270;20.978;2023-08-06T08:17:56;26.60;99.90
23532;DHT22;11943;52.270;20.978;2023-08-06T08:20:22;26.60;99.90
23532;DHT22;11943;52.270;20.978;2023-08-06T08:22:47;26.70;99.90
23532;DHT22;11943;52.270;20.978;2023-08-06T08:25:13;26.70;99.90
23532;DHT22;11943;52.270;20.978;2023-08-06T08:27:39;26.90;99.90
23532;DHT22;11943;52.270;20.978;2023-08-06T08:30:05;26.80;99.90
23532;DHT22;11943;52.270;20.978;2023-08-06T08:32:31;26.90;99.90
23532;DHT22;11943;52.270;20.978;2023-08-06T08:34:57;26.90;99.90
23532;DHT22;11943;52.270;20.978;2023-08-06T08:37:23;27.10;99.90
23532;DHT22;11943;52.270;20.978;2023-08-06T08:39:49;27.40;99.90
23532;DHT22;11943;52.270;20.978;2023-08-06T08:42:16;27.40;99.90
23532;DHT22;11943;52.270;20.978;2023-08-06T08:44:42;27.30;99.90
23532;DHT22;11943;52.270;20.978;2023-08-06T08:47:09;27.50;99.90
23532;DHT22;11943;52.270;20.978;2023-08-06T08:49:36;27.60;99.90
23532;DHT22;11943;52.270;20.978;2023-08-06T08:52:03;27.60;99.90
23532;DHT22;11943;52.270;20.978;2023-08-06T08:54:33;27.70;99.90
23532;DHT22;11943;52.270;20.978;2023-08-06T08:56:59;27.70;99.90
23532;DHT22;11943;52.270;20.978;2023-08-06T08:59:26;27.70;99.90
23532;DHT22;11943;52.270;20.978;2023-08-06T09:01:51;27.90;99.90
23532;DHT22;11943;52.270;20.978;2023-08-06T09:04:19;28.00;99.90
23532;DHT22;11943;52.270;20.978;2023-08-06T09:06:50;27.90;99.90
23532;DHT22;11943;52.270;20.978;2023-08-06T09:09:41;28.10;99.90
23532;DHT22;11943;52.270;20.978;2023-08-06T09:12:13;28.00;99.90
23532;DHT22;11943;52.270;20.978;2023-08-06T09:14:39;27.90;99.90
23532;DHT22;11943;52.270;20.978;2023-08-06T09:17:05;27.70;99.90
23532;DHT22;11943;52.270;20.978;2023-08-06T09:19:31;27.90;99.90
23532;DHT22;11943;52.270;20.978;2023-08-06T09:21:57;28.10;99.90
23532;DHT22;11943;52.270;20.978;2023-08-06T09:24:23;28.30;99.90
23532;DHT22;11943;52.270;20.978;2023-08-06T09:26:48;28.40;99.90
23532;DHT22;11943;52.270;20.978;2023-08-06T09:29:14;28.70;99.90
23532;DHT22;11943;52.270;20.978;2023-08-06T09:31:43;28.90;99.90
23532;DHT22;11943;52.270;20.978;2023-08-06T09:36:42;28.70;99.90
23532;DHT22;11943;52.270;20.978;2023-08-06T09:39:18;28.30;99.90
23532;DHT22;11943;52.270;20.978;2023-08-06T09:41:44;28.20;99.90
23532;DHT22;11943;52.270;20.978;2023-08-06T09:44:18;28.20;99.90
23532;DHT22;11943;52.270;20.978;2023-08-06T09:46:51;28.20;99.90
23532;DHT22;11943;52.270;20.978;2023-08-06T09:49:18;28.20;99.90
23532;DHT22;11943;52.270;20.978;2023-08-06T09:51:45;28.50;99.90
23532;DHT22;11943;52.270;20.978;2023-08-06T09:54:12;29.00;99.90
23532;DHT22;11943;52.270;20.978;2023-08-06T09:56:38;29.20;96.20
23532;DHT22;11943;52.270;20.978;2023-08-06T09:59:07;29.30;97.10
23532;DHT22;11943;52.270;20.978;2023-08-06T10:01:35;29.40;95.80
23532;DHT22;11943;52.270;20.978;2023-08-06T10:04:03;29.00;97.20
23532;DHT22;11943;52.270;20.978;2023-08-06T10:06:31;28.60;98.20
23532;DHT22;11943;52.270;20.978;2023-08-06T10:08:58;29.00;98.30
23532;DHT22;11943;52.270;20.978;2023-08-06T10:11:24;29.00;96.80
23532;DHT22;11943;52.270;20.978;2023-08-06T10:13:57;29.40;96.70
23532;DHT22;11943;52.270;20.978;2023-08-06T10:16:24;29.40;96.80
23532;DHT22;11943;52.270;20.978;2023-08-06T10:18:51;29.20;94.50
23532;DHT22;11943;52.270;20.978;2023-08-06T10:21:17;29.20;94.20
23532;DHT22;11943;52.270;20.978;2023-08-06T10:23:42;29.50;94.10
23532;DHT22;11943;52.270;20.978;2023-08-06T10:26:08;29.30;94.80
23532;DHT22;11943;52.270;20.978;2023-08-06T10:28:38;29.30;91.70
23532;DHT22;11943;52.270;20.978;2023-08-06T10:31:05;29.50;91.10
23532;DHT22;11943;52.270;20.978;2023-08-06T10:33:47;29.60;90.80
23532;DHT22;11943;52.270;20.978;2023-08-06T10:36:14;30.00;91.20
23532;DHT22;11943;52.270;20.978;2023-08-06T10:38:50;29.90;90.30
23532;DHT22;11943;52.270;20.978;2023-08-06T10:41:28;30.00;90.20
23532;DHT22;11943;52.270;20.978;2023-08-06T10:44:07;30.00;88.80
23532;DHT22;11943;52.270;20.978;2023-08-06T10:46:33;30.10;90.40
23532;DHT22;11943;52.270;20.978;2023-08-06T10:48:59;29.90;87.40
23532;DHT22;11943;52.270;20.978;2023-08-06T10:51:25;29.40;89.90
23532;DHT22;11943;52.270;20.978;2023-08-06T10:53:51;29.20;90.40
23532;DHT22;11943;52.270;20.978;2023-08-06T10:56:21;29.10;89.90
23532;DHT22;11943;52.270;20.978;2023-08-06T10:58:48;29.40;90.30
23532;DHT22;11943;52.270;20.978;2023-08-06T11:01:15;29.70;89.50
23532;DHT22;11943;52.270;20.978;2023-08-06T11:03:42;29.70;87.00
23532;DHT22;11943;52.270;20.978;2023-08-06T11:06:09;29.60;90.40
23532;DHT22;11943;52.270;20.978;2023-08-06T11:08:36;29.60;87.00
23532;DHT22;11943;52.270;20.978;2023-08-06T11:11:13;29.70;86.00
23532;DHT22;11943;52.270;20.978;2023-08-06T11:13:42;29.50;90.20
23532;DHT22;11943;52.270;20.978;2023-08-06T11:16:09;29.40;87.30
23532;DHT22;11943;52.270;20.978;2023-08-06T11:18:35;29.40;84.30
23532;DHT22;11943;52.270;20.978;2023-08-06T11:21:02;29.30;85.20
23532;DHT22;11943;52.270;20.978;2023-08-06T11:23:28;29.40;86.10
23532;DHT22;11943;52.270;20.978;2023-08-06T11:25:57;29.60;87.30
23532;DHT22;11943;52.270;20.978;2023-08-06T11:28:24;29.90;84.40
23532;DHT22;11943;52.270;20.978;2023-08-06T11:30:50;29.70;81.80
23532;DHT22;11943;52.270;20.978;2023-08-06T11:33:23;29.50;84.60
23532;DHT22;11943;52.270;20.978;2023-08-06T11:35:51;29.20;83.80
23532;DHT22;11943;52.270;20.978;2023-08-06T11:38:17;29.10;84.60
23532;DHT22;11943;52.270;20.978;2023-08-06T11:40:44;28.90;84.60
23532;DHT22;11943;52.270;20.978;2023-08-06T11:43:11;28.70;85.30
23532;DHT22;11943;52.270;20.978;2023-08-06T11:45:37;28.80;86.60
23532;DHT22;11943;52.270;20.978;2023-08-06T11:48:03;29.30;85.20
23532;DHT22;11943;52.270;20.978;2023-08-06T11:50:29;29.60;83.60
23532;DHT22;11943;52.270;20.978;2023-08-06T11:53:00;29.90;80.80
23532;DHT22;11943;52.270;20.978;2023-08-06T11:55:27;30.20;79.10
23532;DHT22;11943;52.270;20.978;2023-08-06T11:57:54;30.30;81.50
23532;DHT22;11943;52.270;20.978;2023-08-06T12:00:20;30.30;75.20
23532;DHT22;11943;52.270;20.978;2023-08-06T12:02:48;30.20;76.20
23532;DHT22;11943;52.270;20.978;2023-08-06T12:05:17;30.00;76.90
23532;DHT22;11943;52.270;20.978;2023-08-06T12:08:01;30.00;78.90
23532;DHT22;11943;52.270;20.978;2023-08-06T12:10:28;30.00;73.30
23532;DHT22;11943;52.270;20.978;2023-08-06T12:12:55;30.30;73.90
23532;DHT22;11943;52.270;20.978;2023-08-06T12:15:21;30.30;72.10
23532;DHT22;11943;52.270;20.978;2023-08-06T12:17:47;30.10;72.20
23532;DHT22;11943;52.270;20.978;2023-08-06T12:20:13;29.70;75.00
23532;DHT22;11943;52.270;20.978;2023-08-06T12:22:39;29.60;76.00
23532;DHT22;11943;52.270;20.978;2023-08-06T12:25:06;29.50;75.90
23532;DHT22;11943;52.270;20.978;2023-08-06T12:27:37;29.30;76.40
23532;DHT22;11943;52.270;20.978;2023-08-06T12:30:04;29.20;78.00
23532;DHT22;11943;52.270;20.978;2023-08-06T12:32:30;29.30;79.50
23532;DHT22;11943;52.270;20.978;2023-08-06T12:34:56;29.30;79.80
23532;DHT22;11943;52.270;20.978;2023-08-06T12:37:23;29.20;79.30
23532;DHT22;11943;52.270;20.978;2023-08-06T12:39:49;29.10;81.50
23532;DHT22;11943;52.270;20.978;2023-08-06T12:42:14;28.90;81.00
23532;DHT22;11943;52.270;20.978;2023-08-06T12:44:40;28.80;83.10
23532;DHT22;11943;52.270;20.978;2023-08-06T12:47:07;28.70;84.70
23532;DHT22;11943;52.270;20.978;2023-08-06T12:49:33;28.50;85.00
23532;DHT22;11943;52.270;20.978;2023-08-06T12:51:58;28.40;87.00
23532;DHT22;11943;52.270;20.978;2023-08-06T12:54:28;28.30;86.50
23532;DHT22;11943;52.270;20.978;2023-08-06T12:56:54;28.30;86.80
23532;DHT22;11943;52.270;20.978;2023-08-06T12:59:19;28.20;89.10
23532;DHT22;11943;52.270;20.978;2023-08-06T13:01:46;28.10;89.00
23532;DHT22;11943;52.270;20.978;2023-08-06T13:04:11;28.10;89.10
23532;DHT22;11943;52.270;20.978;2023-08-06T13:06:37;28.10;88.20
23532;DHT22;11943;52.270;20.978;2023-08-06T13:09:11;28.10;86.90
23532;DHT22;11943;52.270;20.978;2023-08-06T13:11:39;28.20;87.20
23532;DHT22;11943;52.270;20.978;2023-08-06T13:14:07;28.10;88.20
23532;DHT22;11943;52.270;20.978;2023-08-06T13:16:33;28.10;90.90
23532;DHT22;11943;52.270;20.978;2023-08-06T13:18:59;27.90;92.70
23532;DHT22;11943;52.270;20.978;2023-08-06T13:21:32;27.80;99.90
23532;DHT22;11943;52.270;20.978;2023-08-06T13:23:58;27.60;99.90
23532;DHT22;11943;52.270;20.978;2023-08-06T13:26:24;27.80;99.90
23532;DHT22;11943;52.270;20.978;2023-08-06T13:28:49;28.00;99.90
23532;DHT22;11943;52.270;20.978;2023-08-06T13:31:16;28.10;99.90
23532;DHT22;11943;52.270;20.978;2023-08-06T13:33:41;28.00;99.50
23532;DHT22;11943;52.270;20.978;2023-08-06T13:36:07;28.10;98.60
23532;DHT22;11943;52.270;20.978;2023-08-06T13:38:33;28.10;97.30
23532;DHT22;11943;52.270;20.978;2023-08-06T13:40:58;28.00;95.50
23532;DHT22;11943;52.270;20.978;2023-08-06T13:43:24;28.20;96.00
23532;DHT22;11943;52.270;20.978;2023-08-06T13:45:50;28.50;95.20
23532;DHT22;11943;52.270;20.978;2023-08-06T13:48:15;28.90;93.40
23532;DHT22;11943;52.270;20.978;2023-08-06T13:50:41;28.80;91.40
23532;DHT22;11943;52.270;20.978;2023-08-06T13:53:07;28.70;90.70
23532;DHT22;11943;52.270;20.978;2023-08-06T13:55:32;28.70;91.60
23532;DHT22;11943;52.270;20.978;2023-08-06T13:57:58;28.60;90.40
23532;DHT22;11943;52.270;20.978;2023-08-06T14:00:24;28.40;89.70
23532;DHT22;11943;52.270;20.978;2023-08-06T14:02:49;28.20;90.60
23532;DHT22;11943;52.270;20.978;2023-08-06T14:05:15;27.90;90.20
23532;DHT22;11943;52.270;20.978;2023-08-06T14:07:40;27.80;90.90
23532;DHT22;11943;52.270;20.978;2023-08-06T14:10:07;27.70;90.80
23532;DHT22;11943;52.270;20.978;2023-08-06T14:12:34;27.70;89.50
23532;DHT22;11943;52.270;20.978;2023-08-06T14:15:00;27.80;88.40
23532;DHT22;11943;52.270;20.978;2023-08-06T14:17:25;28.00;89.60
23532;DHT22;11943;52.270;20.978;2023-08-06T14:19:51;28.10;89.60
23532;DHT22;11943;52.270;20.978;2023-08-06T14:22:17;28.20;90.00
23532;DHT22;11943;52.270;20.978;2023-08-06T14:24:42;28.10;87.80
23532;DHT22;11943;52.270;20.978;2023-08-06T14:27:08;28.00;87.50
23532;DHT22;11943;52.270;20.978;2023-08-06T14:29:33;28.00;87.40
23532;DHT22;11943;52.270;20.978;2023-08-06T14:31:59;28.10;87.40
23532;DHT22;11943;52.270;20.978;2023-08-06T14:34:25;28.00;86.70
23532;DHT22;11943;52.270;20.978;2023-08-06T14:36:50;27.90;87.60
23532;DHT22;11943;52.270;20.978;2023-08-06T14:39:16;28.00;86.50
23532;DHT22;11943;52.270;20.978;2023-08-06T14:41:41;28.10;84.60
23532;DHT22;11943;52.270;20.978;2023-08-06T14:44:07;28.20;85.00
23532;DHT22;11943;52.270;20.978;2023-08-06T14:46:33;28.20;85.80
23532;DHT22;11943;52.270;20.978;2023-08-06T14:48:58;28.20;83.90
23532;DHT22;11943;52.270;20.978;2023-08-06T14:51:24;28.30;85.20
23532;DHT22;11943;52.270;20.978;2023-08-06T14:53:50;28.20;85.60
23532;DHT22;11943;52.270;20.978;2023-08-06T14:56:15;28.00;82.30
23532;DHT22;11943;52.270;20.978;2023-08-06T14:58:41;27.80;83.50
23532;DHT22;11943;52.270;20.978;2023-08-06T15:01:07;27.90;84.70
23532;DHT22;11943;52.270;20.978;2023-08-06T15:03:33;27.60;85.40
23532;DHT22;11943;52.270;20.978;2023-08-06T15:05:59;27.40;87.70
23532;DHT22;11943;52.270;20.978;2023-08-06T15:08:25;27.40;92.70
23532;DHT22;11943;52.270;20.978;2023-08-06T15:10:54;27.40;96.80
23532;DHT22;11943;52.270;20.978;2023-08-06T15:13:19;27.20;98.20
23532;DHT22;11943;52.270;20.978;2023-08-06T15:15:48;27.10;99.90
23532;DHT22;11943;52.270;20.978;2023-08-06T15:18:14;26.90;99.90
23532;DHT22;11943;52.270;20.978;2023-08-06T15:20:40;27.10;99.90
23532;DHT22;11943;52.270;20.978;2023-08-06T15:23:06;27.30;99.90
23532;DHT22;11943;52.270;20.978;2023-08-06T15:25:31;27.40;99.80